Time;durP1;ratioP1;P1;durP2;ratioP2;P2;SDS_P1;SDS_P2;PMS_P1;PMS_P2;Temp;Humidity;BMP_temperature;BMP_pressure;BME280_temperature;BME280_humidity;BME280_pressure;Samples;Min_cycle;Max_cycle;Signal;HPM_P1;HPM_P2
2023/08/18 00:00:12;;;;;;;3.42;1.35;;;16.30;99.90;;;;;;25451436;23;20049;-56
2023/08/18 00:10:13;;;;;;;2.17;1.70;;;16.20;99.90;;;;;;25449712;23;20001;-57
2023/08/18 00:20:15;;;;;;;3.10;1.33;;;16.30;99.90;;;;;;25450155;23;20073;-56
2023/08/18 00:30:18;;;;;;;2.45;1.50;;;16.40;99.90;;;;;;25449414;23;20377;-48
2023/08/18 00:40:23;;;;;;;1.80;1.15;;;16.30;99.90;;;;;;25448853;23;20002;-50
2023/08/18 00:50:25;;;;;;;2.97;1.02;;;16.30;99.90;;;;;;25449774;23;20009;-55
2023/08/18 01:00:27;;;;;;;1.60;1.08;;;16.20;99.90;;;;;;25446840;23;20024;-50
2023/08/18 01:10:32;;;;;;;1.80;0.90;;;16.10;99.90;;;;;;25448408;23;20013;-48
2023/08/18 01:20:36;;;;;;;1.38;1.00;;;16.00;99.90;;;;;;25421997;23;20060;-57
2023/08/18 01:30:57;;;;;;;1.20;0.98;;;15.80;99.90;;;;;;25447641;23;20002;-57
2023/08/18 01:40:59;;;;;;;1.38;1.10;;;15.70;99.90;;;;;;25488282;23;20010;-55
2023/08/18 01:51:01;;;;;;;1.50;0.90;;;15.80;99.90;;;;;;25447413;23;20006;-55
2023/08/18 02:01:02;;;;;;;1.17;0.77;;;15.90;99.90;;;;;;25422008;23;20013;-55
2023/08/18 02:11:05;;;;;;;1.00;0.70;;;15.70;99.90;;;;;;25447056;23;20009;-57
2023/08/18 02:21:07;;;;;;;1.13;0.90;;;15.60;99.90;;;;;;25446742;23;20057;-57
2023/08/18 02:31:10;;;;;;;1.40;1.20;;;15.60;99.90;;;;;;25447047;23;20005;-55
2023/08/18 02:41:12;;;;;;;2.95;1.60;;;15.70;99.90;;;;;;25453777;23;20013;-57
2023/08/18 02:51:13;;;;;;;3.10;1.88;;;15.60;99.90;;;;;;25453513;23;20474;-57
2023/08/18 03:01:16;;;;;;;4.00;2.25;;;15.50;99.90;;;;;;25426857;23;20129;-57
2023/08/18 03:11:18;;;;;;;2.38;1.58;;;15.30;99.90;;;;;;25452700;23;20037;-56
2023/08/18 03:21:19;;;;;;;5.25;3.13;;;15.30;99.90;;;;;;25453840;23;20244;-53
2023/08/18 03:31:21;;;;;;;5.85;3.03;;;15.00;99.90;;;;;;25425786;23;20009;-57
2023/08/18 03:41:23;;;;;;;3.75;2.47;;;14.90;99.90;;;;;;25424712;23;20005;-48
2023/08/18 03:51:25;;;;;;;3.70;2.42;;;15.00;99.90;;;;;;25450399;23;20084;-57
2023/08/18 04:01:27;;;;;;;3.78;2.72;;;15.00;99.90;;;;;;25424195;23;20401;-57
2023/08/18 04:11:29;;;;;;;5.88;3.63;;;15.10;99.90;;;;;;25449667;23;20014;-55
2023/08/18 04:21:31;;;;;;;4.25;3.45;;;15.00;99.90;;;;;;25423428;23;20005;-57
2023/08/18 04:31:33;;;;;;;4.63;3.38;;;14.90;99.90;;;;;;25422642;23;20005;-57
2023/08/18 04:41:44;;;;;;;5.40;4.28;;;14.80;99.90;;;;;;25488986;23;20013;-57
2023/08/18 04:51:46;;;;;;;6.93;4.70;;;14.90;99.90;;;;;;25421830;23;20016;-57
2023/08/18 05:01:51;;;;;;;7.43;5.18;;;15.00;99.90;;;;;;25397364;23;20346;-57
2023/08/18 05:11:53;;;;;;;13.93;7.10;;;15.10;99.90;;;;;;25398300;23;20437;-57
2023/08/18 05:21:57;;;;;;;6.22;5.50;;;15.20;99.90;;;;;;25447188;23;20047;-55
2023/08/18 05:31:59;;;;;;;5.93;5.10;;;15.30;99.90;;;;;;25446956;23;20381;-48
2023/08/18 05:42:01;;;;;;;6.53;5.45;;;15.50;99.90;;;;;;25446835;23;20002;-57
2023/08/18 05:52:03;;;;;;;9.00;5.50;;;15.80;99.90;;;;;;25446285;23;20464;-47
2023/08/18 06:02:05;;;;;;;10.02;5.47;;;15.90;99.90;;;;;;25446125;23;20014;-55
2023/08/18 06:12:07;;;;;;;8.07;5.18;;;15.90;99.90;;;;;;25452237;23;20064;-50
2023/08/18 06:22:09;;;;;;;8.52;5.45;;;16.00;99.90;;;;;;25453907;23;20009;-58
2023/08/18 06:32:11;;;;;;;10.57;5.88;;;16.00;99.90;;;;;;25453404;23;20079;-57
2023/08/18 06:42:15;;;;;;;6.30;4.07;;;16.30;99.90;;;;;;25453164;23;20009;-52
2023/08/18 06:52:17;;;;;;;6.78;3.88;;;17.60;99.90;;;;;;25452455;23;20029;-58
2023/08/18 07:02:19;;;;;;;4.68;3.22;;;19.20;99.90;;;;;;25453439;23;20385;-58
2023/08/18 07:12:21;;;;;;;4.82;3.25;;;20.20;99.90;;;;;;25451617;23;20049;-52
2023/08/18 07:22:22;;;;;;;5.63;2.60;;;21.20;99.90;;;;;;25451456;23;20377;-59
2023/08/18 07:32:24;;;;;;;3.60;2.28;;;22.10;99.90;;;;;;25451433;23;20455;-60
2023/08/18 07:42:26;;;;;;;3.70;2.20;;;23.20;99.90;;;;;;25424757;23;20005;-59
2023/08/18 07:52:27;;;;;;;2.00;1.80;;;24.40;99.90;;;;;;25450647;23;20020;-61
2023/08/18 08:02:29;;;;;;;2.20;1.58;;;24.80;97.20;;;;;;25449822;23;20088;-61
2023/08/18 08:12:32;;;;;;;2.78;1.90;;;;;;;;;;25449651;23;20032;-62
2023/08/18 08:22:34;;;;;;;2.53;1.83;;;;;;;;;;25448509;23;20033;-61
2023/08/18 08:32:35;;;;;;;3.13;1.65;;;26.70;99.90;;;;;;25447920;23;20036;-61
2023/08/18 08:42:37;;;;;;;2.58;1.70;;;26.80;98.00;;;;;;25448000;23;19998;-62
2023/08/18 08:52:40;;;;;;;2.53;1.90;;;26.40;98.00;;;;;;25448580;23;20019;-51
2023/08/18 09:02:45;;;;;;;2.10;1.60;;;26.30;95.40;;;;;;25446784;23;20378;-61
2023/08/18 09:12:47;;;;;;;2.65;1.85;;;25.80;96.90;;;;;;25421348;23;20064;-60
2023/08/18 09:22:58;;;;;;;5.47;2.03;;;25.30;96.10;;;;;;25446655;23;20437;-59
2023/08/18 09:33:01;;;;;;;2.00;1.70;;;25.10;97.70;;;;;;25486740;23;20354;-60
2023/08/18 09:43:03;;;;;;;2.63;1.50;;;25.10;99.60;;;;;;25445779;23;20006;-52
2023/08/18 09:53:07;;;;;;;3.42;1.77;;;25.70;98.30;;;;;;25446166;23;20333;-59
2023/08/18 10:03:17;;;;;;;3.10;1.75;;;26.20;99.00;;;;;;25446238;23;20014;-60
2023/08/18 10:13:20;;;;;;;2.55;1.90;;;27.00;98.80;;;;;;25486751;23;20006;-52
2023/08/18 10:23:31;;;;;;;4.72;2.00;;;27.20;96.80;;;;;;25446468;23;20005;-59
2023/08/18 10:33:44;;;;;;;3.08;1.80;;;27.20;97.60;;;;;;25485859;23;20013;-59
2023/08/18 10:43:51;;;;;;;3.53;1.92;;;27.60;96.30;;;;;;25485467;23;20385;-59
2023/08/18 10:53:53;;;;;;;2.60;2.03;;;27.60;96.30;;;;;;25489278;23;20013;-58
2023/08/18 11:04:01;;;;;;;5.75;2.42;;;27.40;94.70;;;;;;25452808;23;20037;-58
2023/08/18 11:14:03;;;;;;;3.45;3.00;;;27.60;94.60;;;;;;25452031;23;20006;-58
2023/08/18 11:24:05;;;;;;;5.57;3.50;;;27.70;96.00;;;;;;25452535;23;20005;-58
2023/08/18 11:34:07;;;;;;;3.67;2.90;;;27.80;95.20;;;;;;25450941;23;20006;-58
2023/08/18 11:44:10;;;;;;;5.35;3.50;;;28.20;98.60;;;;;;25450317;23;20036;-58
2023/08/18 11:54:12;;;;;;;4.90;3.00;;;28.40;97.20;;;;;;25450184;23;20001;-58
2023/08/18 12:04:15;;;;;;;4.95;3.35;;;28.70;96.30;;;;;;25448849;23;20410;-58
2023/08/18 12:14:18;;;;;;;4.35;3.83;;;28.80;96.00;;;;;;25449123;23;20001;-48
2023/08/18 12:24:20;;;;;;;5.00;4.53;;;28.60;97.10;;;;;;25448906;23;20441;-59
2023/08/18 12:34:22;;;;;;;6.28;5.38;;;28.60;96.40;;;;;;25448035;23;20001;-59
2023/08/18 12:44:24;;;;;;;7.50;5.15;;;28.50;96.50;;;;;;25448015;23;20005;-59
2023/08/18 12:54:28;;;;;;;6.07;5.47;;;28.70;96.60;;;;;;25447708;23;20013;-60
2023/08/18 13:04:31;;;;;;;8.13;7.32;;;28.80;98.60;;;;;;25445645;23;20017;-60
2023/08/18 13:14:33;;;;;;;9.80;8.68;;;28.70;97.60;;;;;;25447159;23;20079;-60
2023/08/18 13:24:35;;;;;;;10.25;8.30;;;28.70;97.50;;;;;;25446938;23;20009;-60
2023/08/18 13:34:37;;;;;;;12.02;10.00;;;29.00;98.10;;;;;;25446495;23;20409;-61
2023/08/18 13:44:39;;;;;;;14.30;10.23;;;29.00;98.30;;;;;;25445771;23;20089;-60
2023/08/18 13:54:41;;;;;;;13.20;11.90;;;29.00;97.70;;;;;;25446206;23;20100;-61
2023/08/18 14:04:43;;;;;;;11.10;9.88;;;29.20;97.80;;;;;;25445977;23;20013;-61
2023/08/18 14:14:45;;;;;;;11.45;10.40;;;29.40;97.30;;;;;;25445897;23;20325;-61
2023/08/18 14:24:47;;;;;;;13.32;12.13;;;29.30;97.80;;;;;;25446034;23;20010;-62
2023/08/18 14:34:51;;;;;;;13.00;11.77;;;29.10;97.30;;;;;;25453529;23;20002;-62
2023/08/18 14:44:53;;;;;;;14.60;11.27;;;28.80;97.10;;;;;;25452303;23;20013;-62
2023/08/18 14:54:55;;;;;;;12.15;10.88;;;28.60;97.80;;;;;;25453930;23;20002;-63
2023/08/18 15:04:57;;;;;;;12.77;11.52;;;28.50;97.80;;;;;;25452366;23;20013;-63
2023/08/18 15:14:59;;;;;;;13.35;12.05;;;28.20;97.60;;;;;;25451288;23;20005;-62
2023/08/18 15:25:01;;;;;;;12.48;11.05;;;27.60;98.60;;;;;;25451634;23;20325;-59
2023/08/18 15:35:03;;;;;;;13.73;12.40;;;27.00;99.30;;;;;;25451211;23;20005;-60
2023/08/18 15:45:06;;;;;;;11.40;10.30;;;26.50;99.70;;;;;;25450170;23;20040;-59
2023/08/18 15:55:09;;;;;;;11.98;10.77;;;26.40;99.90;;;;;;25450485;23;20013;-59
2023/08/18 16:05:11;;;;;;;13.50;12.20;;;26.90;99.70;;;;;;25491354;23;20009;-60
2023/08/18 16:15:13;;;;;;;12.18;10.90;;;26.70;98.80;;;;;;25450187;23;20029;-59
2023/08/18 16:25:15;;;;;;;12.15;11.05;;;25.90;99.90;;;;;;25449896;23;20012;-51
2023/08/18 16:35:17;;;;;;;15.82;13.77;;;24.50;99.90;;;;;;25449261;23;20008;-52
2023/08/18 16:45:19;;;;;;;17.90;15.10;;;23.00;99.90;;;;;;25449120;23;20009;-49
2023/08/18 16:55:20;;;;;;;18.88;14.95;;;22.00;99.90;;;;;;25448504;23;20341;-50
2023/08/18 17:05:22;;;;;;;21.90;17.25;;;21.10;99.90;;;;;;25449715;23;20009;-58
2023/08/18 17:15:24;;;;;;;19.77;17.23;;;20.50;99.90;;;;;;25447991;23;20334;-58
2023/08/18 17:25:29;;;;;;;20.73;18.55;;;20.00;99.90;;;;;;25447909;23;20005;-57
2023/08/18 17:35:31;;;;;;;15.52;13.23;;;19.60;99.90;;;;;;25448414;23;20374;-58
2023/08/18 17:45:34;;;;;;;15.63;13.57;;;19.20;99.90;;;;;;25446723;23;20445;-50
2023/08/18 17:55:36;;;;;;;17.65;14.68;;;18.70;99.90;;;;;;25448218;23;20018;-57
2023/08/18 18:05:42;;;;;;;25.77;22.33;;;18.40;99.90;;;;;;25452946;23;20001;-57
2023/08/18 18:15:44;;;;;;;23.38;19.15;;;18.20;99.90;;;;;;25495610;23;20001;-57
2023/08/18 18:25:46;;;;;;;28.42;22.95;;;18.00;99.90;;;;;;25454421;23;20081;-57
2023/08/18 18:35:48;;;;;;;24.40;19.23;;;17.80;99.90;;;;;;25453743;23;20064;-57
2023/08/18 18:45:50;;;;;;;28.05;21.48;;;17.40;99.90;;;;;;25453187;23;20385;-57
2023/08/18 18:55:52;;;;;;;30.20;23.17;;;17.30;99.90;;;;;;25452943;23;20021;-57
2023/08/18 19:05:56;;;;;;;29.55;25.77;;;17.20;99.90;;;;;;25424468;23;20094;-57
2023/08/18 19:15:59;;;;;;;27.27;21.33;;;17.00;99.90;;;;;;25429145;23;20036;-55
2023/08/18 19:26:01;;;;;;;26.90;21.60;;;16.80;99.90;;;;;;25452275;23;20022;-56
2023/08/18 19:36:04;;;;;;;34.05;25.88;;;16.70;99.90;;;;;;25452007;23;20473;-56
2023/08/18 19:46:06;;;;;;;26.20;21.45;;;16.70;99.90;;;;;;25451193;23;20023;-57
2023/08/18 19:56:08;;;;;;;25.60;21.30;;;16.50;99.90;;;;;;25450529;23;20021;-57
2023/08/18 20:06:10;;;;;;;19.00;15.32;;;16.60;99.90;;;;;;25450617;23;20314;-47
2023/08/18 20:16:13;;;;;;;23.40;20.10;;;16.60;99.90;;;;;;25451196;23;20372;-57
2023/08/18 20:26:15;;;;;;;20.23;15.82;;;16.50;99.90;;;;;;25449093;23;20329;-56
2023/08/18 20:36:17;;;;;;;28.05;23.20;;;16.40;99.90;;;;;;25448761;23;20484;-57
2023/08/18 20:46:22;;;;;;;20.02;13.52;;;16.40;99.90;;;;;;25448192;23;20005;-57
2023/08/18 20:56:24;;;;;;;21.13;15.60;;;16.40;99.90;;;;;;25447661;23;20045;-52
2023/08/18 21:06:37;;;;;;;17.30;15.25;;;16.30;99.90;;;;;;21384125;27;20296;-48
2023/08/18 21:16:40;;;;;;;23.55;18.33;;;16.20;99.90;;;;;;21232068;27;20032;-55
2023/08/18 21:26:42;;;;;;;26.40;20.20;;;16.10;99.90;;;;;;21236633;27;20495;-57
2023/08/18 21:36:44;;;;;;;31.15;24.27;;;16.10;99.90;;;;;;21295643;27;20027;-58
2023/08/18 21:46:46;;;;;;;26.83;21.83;;;16.20;99.90;;;;;;21294552;27;20080;-57
2023/08/18 21:56:48;;;;;;;27.92;21.83;;;16.20;99.90;;;;;;21293527;27;20083;-58
2023/08/18 22:06:50;;;;;;;25.25;20.95;;;16.20;99.90;;;;;;21293061;27;20080;-57
2023/08/18 22:16:52;;;;;;;30.13;22.77;;;16.20;99.90;;;;;;21196410;27;20325;-66
2023/08/18 22:26:54;;;;;;;31.10;24.50;;;16.30;99.90;;;;;;21164577;27;20536;-61
2023/08/18 22:36:56;;;;;;;35.25;26.10;;;16.30;99.90;;;;;;21177880;27;20031;-62
2023/08/18 22:47:13;;;;;;;39.60;28.13;;;16.10;99.90;;;;;;21191753;27;20040;-62
2023/08/18 22:57:14;;;;;;;35.78;26.52;;;15.90;99.90;;;;;;21177735;27;20058;-61
2023/08/18 23:07:19;;;;;;;32.45;23.58;;;15.80;99.90;;;;;;21227101;27;20107;-62
2023/08/18 23:17:21;;;;;;;31.27;24.92;;;15.80;99.90;;;;;;21176611;27;20538;-63
2023/08/18 23:27:23;;;;;;;36.30;26.83;;;15.90;99.90;;;;;;21152927;27;20468;-60
2023/08/18 23:37:25;;;;;;;32.10;24.63;;;15.90;99.90;;;;;;21203455;27;20032;-60
2023/08/18 23:47:27;;;;;;;28.63;21.92;;;15.80;99.90;;;;;;21174555;27;20031;-51
2023/08/18 23:57:28;;;;;;;27.48;21.73;;;15.70;99.90;;;;;;21177829;27;20047;-58
